DAL322 KATL-EGLL
Flight info
| Callsign | DAL322 |
|---|---|
| Flight time | N/A |
| Altitude | 35000 |
| Route | PHIIL3 HRTWL Q64 SAWED Q108 ZJAAY Q167 RIFLE DCT ACK DCT TUSKY N355C JOOPY/M081F370 NATV BEXET/N0469F370 DCT DEVOL DCT RINUS DCT LIFFY UL975 MALUD Q38 NUGRA |
| Aircraft | A339/H-SADE1E2E3GHIJ3J5M1P2RWXY/LB2D1 |
Departure
| Time | 2026-05-03 22:39 |
|---|---|
| Airport | Hartsfield Jackson Atlanta International Airport (KATL) |
Arrival
| Time | N/A |
|---|---|
| Airport | London Heathrow Airport (EGLL) |
| Time | Latitude | Longitude | Altitude | Speed | Heading |
|---|---|---|---|---|---|
| 2026-05-03 21:56 | 33.63949 | -84.43978 | 1043 ft | 0 kts | 90° |
| 2026-05-03 22:25 | 33.63949 | -84.43994 | 1042 ft | 4 kts | 91° |
| 2026-05-03 22:26 | 33.63949 | -84.44025 | 1043 ft | 3 kts | 91° |
| 2026-05-03 22:26 | 33.63947 | -84.44047 | 1043 ft | 4 kts | 137° |
| 2026-05-03 22:26 | 33.63956 | -84.44057 | 1044 ft | 4 kts | 187° |
| 2026-05-03 22:26 | 33.63983 | -84.44052 | 1042 ft | 4 kts | 182° |
| 2026-05-03 22:27 | 33.63989 | -84.44051 | 1042 ft | 0 kts | 180° |
| 2026-05-03 22:30 | 33.63986 | -84.44051 | 1042 ft | 1 kts | 180° |
| 2026-05-03 22:30 | 33.63959 | -84.44051 | 1043 ft | 6 kts | 180° |
| 2026-05-03 22:31 | 33.63931 | -84.44051 | 1042 ft | 4 kts | 180° |
| 2026-05-03 22:31 | 33.63895 | -84.44051 | 1041 ft | 7 kts | 180° |
| 2026-05-03 22:31 | 33.63828 | -84.44051 | 1041 ft | 12 kts | 180° |
| 2026-05-03 22:31 | 33.63733 | -84.44051 | 1041 ft | 15 kts | 180° |
| 2026-05-03 22:32 | 33.63670 | -84.44003 | 1041 ft | 12 kts | 108° |
| 2026-05-03 22:32 | 33.63663 | -84.43887 | 1041 ft | 16 kts | 88° |
| 2026-05-03 22:32 | 33.63665 | -84.43738 | 1041 ft | 20 kts | 90° |
| 2026-05-03 22:32 | 33.63665 | -84.43555 | 1041 ft | 24 kts | 90° |
| 2026-05-03 22:33 | 33.63666 | -84.43345 | 1041 ft | 27 kts | 90° |
| 2026-05-03 22:33 | 33.63666 | -84.43117 | 1041 ft | 28 kts | 90° |
| 2026-05-03 22:33 | 33.63666 | -84.42957 | 1041 ft | 6 kts | 90° |
| 2026-05-03 22:33 | 33.63666 | -84.42896 | 1041 ft | 9 kts | 90° |
| 2026-05-03 22:34 | 33.63665 | -84.42814 | 1041 ft | 11 kts | 90° |
| 2026-05-03 22:34 | 33.63659 | -84.42716 | 1041 ft | 13 kts | 95° |
| 2026-05-03 22:34 | 33.63656 | -84.42599 | 1041 ft | 15 kts | 89° |
| 2026-05-03 22:34 | 33.63657 | -84.42467 | 1041 ft | 17 kts | 90° |
| 2026-05-03 22:35 | 33.63657 | -84.42316 | 1041 ft | 19 kts | 90° |
| 2026-05-03 22:35 | 33.63656 | -84.42152 | 1042 ft | 21 kts | 90° |
| 2026-05-03 22:35 | 33.63656 | -84.41973 | 1041 ft | 22 kts | 90° |
| 2026-05-03 22:35 | 33.63657 | -84.41780 | 1041 ft | 24 kts | 90° |
| 2026-05-03 22:36 | 33.63656 | -84.41576 | 1041 ft | 25 kts | 90° |
| 2026-05-03 22:36 | 33.63656 | -84.41358 | 1041 ft | 27 kts | 90° |
| 2026-05-03 22:36 | 33.63656 | -84.41133 | 1041 ft | 26 kts | 90° |
| 2026-05-03 22:36 | 33.63657 | -84.40949 | 1041 ft | 20 kts | 89° |
| 2026-05-03 22:37 | 33.63651 | -84.40787 | 1041 ft | 18 kts | 105° |
| 2026-05-03 22:37 | 33.63579 | -84.40750 | 1042 ft | 0 kts | 176° |
| 2026-05-03 22:37 | 33.63575 | -84.40750 | 1042 ft | 2 kts | 176° |
| 2026-05-03 22:38 | 33.63554 | -84.40749 | 1042 ft | 4 kts | 177° |
| 2026-05-03 22:38 | 33.63516 | -84.40750 | 1042 ft | 7 kts | 185° |
| 2026-05-03 22:38 | 33.63476 | -84.40787 | 1041 ft | 8 kts | 238° |
| 2026-05-03 22:38 | 33.63471 | -84.40863 | 1042 ft | 16 kts | 270° |
| 2026-05-03 22:39 | 33.63472 | -84.41294 | 1041 ft | 86 kts | 270° |
| 2026-05-03 22:39 | 33.63475 | -84.42269 | 1042 ft | 145 kts | 270° |
| 2026-05-03 22:39 | 33.63474 | -84.43663 | 1114 ft | 182 kts | 271° |
| 2026-05-03 22:39 | 33.63448 | -84.45226 | 1631 ft | 193 kts | 269° |
| 2026-05-03 22:40 | 33.63335 | -84.46888 | 2173 ft | 208 kts | 264° |
| 2026-05-03 22:40 | 33.62866 | -84.48595 | 2751 ft | 221 kts | 249° |
| 2026-05-03 22:40 | 33.62059 | -84.50199 | 3469 ft | 227 kts | 239° |
| 2026-05-03 22:40 | 33.61214 | -84.51815 | 3946 ft | 239 kts | 247° |
| 2026-05-03 22:41 | 33.60514 | -84.53692 | 4343 ft | 255 kts | 252° |
| 2026-05-03 22:41 | 33.59817 | -84.55723 | 4774 ft | 266 kts | 250° |
| 2026-05-03 22:41 | 33.58799 | -84.57603 | 5361 ft | 274 kts | 228° |
| 2026-05-03 22:41 | 33.57192 | -84.58858 | 5900 ft | 282 kts | 203° |
| 2026-05-03 22:42 | 33.55238 | -84.59257 | 6379 ft | 290 kts | 179° |
| 2026-05-03 22:42 | 33.53278 | -84.58714 | 6889 ft | 294 kts | 154° |
| 2026-05-03 22:42 | 33.51590 | -84.57317 | 7424 ft | 295 kts | 138° |
| 2026-05-03 22:42 | 33.50089 | -84.55624 | 7941 ft | 297 kts | 135° |
| 2026-05-03 22:43 | 33.48619 | -84.53857 | 8442 ft | 300 kts | 134° |
| 2026-05-03 22:43 | 33.47263 | -84.51979 | 8969 ft | 303 kts | 124° |
| 2026-05-03 22:43 | 33.46308 | -84.49725 | 9513 ft | 306 kts | 108° |
| 2026-05-03 22:43 | 33.45827 | -84.47238 | 10039 ft | 309 kts | 97° |
| 2026-05-03 22:44 | 33.45644 | -84.44630 | 10312 ft | 321 kts | 91° |
| 2026-05-03 22:44 | 33.45609 | -84.41885 | 10472 ft | 337 kts | 89° |
| 2026-05-03 22:44 | 33.45624 | -84.39035 | 10619 ft | 352 kts | 88° |
| 2026-05-03 22:44 | 33.45638 | -84.36046 | 10927 ft | 360 kts | 89° |
| 2026-05-03 22:45 | 33.45670 | -84.33021 | 11335 ft | 365 kts | 84° |
| 2026-05-03 22:45 | 33.46188 | -84.30049 | 11779 ft | 366 kts | 71° |
| 2026-05-03 22:45 | 33.47009 | -84.27141 | 12214 ft | 369 kts | 68° |
| 2026-05-03 22:45 | 33.47869 | -84.24265 | 12639 ft | 373 kts | 68° |
| 2026-05-03 22:46 | 33.48709 | -84.21311 | 13076 ft | 377 kts | 69° |
| 2026-05-03 22:46 | 33.49513 | -84.18310 | 13511 ft | 381 kts | 70° |
| 2026-05-03 22:46 | 33.50299 | -84.15255 | 13902 ft | 385 kts | 71° |
| 2026-05-03 22:46 | 33.51079 | -84.12164 | 14015 ft | 387 kts | 71° |
| 2026-05-03 22:47 | 33.51852 | -84.09071 | 14028 ft | 387 kts | 71° |
| 2026-05-03 22:47 | 33.52623 | -84.05984 | 14002 ft | 387 kts | 71° |
| 2026-05-03 22:47 | 33.53399 | -84.02883 | 14001 ft | 387 kts | 71° |
| 2026-05-03 22:47 | 33.54162 | -83.99834 | 13995 ft | 387 kts | 71° |
| 2026-05-03 22:48 | 33.54939 | -83.96727 | 13995 ft | 387 kts | 71° |
| 2026-05-03 22:48 | 33.55710 | -83.93641 | 13990 ft | 388 kts | 71° |
| 2026-05-03 22:48 | 33.56483 | -83.90542 | 13980 ft | 389 kts | 71° |
| 2026-05-03 22:48 | 33.57263 | -83.87411 | 14251 ft | 392 kts | 71° |
| 2026-05-03 22:49 | 33.58049 | -83.84261 | 14613 ft | 396 kts | 71° |
| 2026-05-03 22:49 | 33.58988 | -83.81164 | 14951 ft | 399 kts | 63° |
| 2026-05-03 22:49 | 33.60167 | -83.78119 | 15273 ft | 404 kts | 62° |
| 2026-05-03 22:49 | 33.61356 | -83.75038 | 15611 ft | 409 kts | 62° |
| 2026-05-03 22:50 | 33.62547 | -83.71923 | 15960 ft | 413 kts | 63° |
| 2026-05-03 22:50 | 33.63748 | -83.68766 | 16277 ft | 419 kts | 63° |
| 2026-05-03 22:50 | 33.64955 | -83.65553 | 16614 ft | 424 kts | 64° |
| 2026-05-03 22:50 | 33.65934 | -83.62224 | 16967 ft | 429 kts | 73° |
| 2026-05-03 22:51 | 33.66615 | -83.58714 | 17284 ft | 435 kts | 77° |
| 2026-05-03 22:51 | 33.67258 | -83.55145 | 17604 ft | 440 kts | 77° |
| 2026-05-03 22:51 | 33.67925 | -83.51537 | 17926 ft | 445 kts | 77° |
| 2026-05-03 22:51 | 33.68605 | -83.47891 | 18257 ft | 450 kts | 77° |
| 2026-05-03 22:52 | 33.69293 | -83.44214 | 18559 ft | 454 kts | 77° |
| 2026-05-03 22:52 | 33.69988 | -83.40501 | 18897 ft | 457 kts | 77° |
| 2026-05-03 22:52 | 33.70686 | -83.36758 | 19195 ft | 461 kts | 77° |
| 2026-05-03 22:52 | 33.71386 | -83.32985 | 19531 ft | 464 kts | 77° |
| 2026-05-03 22:53 | 33.72090 | -83.29190 | 19833 ft | 468 kts | 77° |
| 2026-05-03 22:53 | 33.72799 | -83.25355 | 20131 ft | 472 kts | 78° |
| 2026-05-03 22:53 | 33.73516 | -83.21471 | 20438 ft | 476 kts | 78° |
| 2026-05-03 22:53 | 33.74245 | -83.17576 | 20777 ft | 479 kts | 76° |
| 2026-05-03 22:54 | 33.75305 | -83.13825 | 21057 ft | 482 kts | 64° |
| 2026-05-03 22:54 | 33.76887 | -83.10260 | 21339 ft | 484 kts | 54° |
| 2026-05-03 22:54 | 33.78709 | -83.06826 | 21611 ft | 488 kts | 54° |
| 2026-05-03 22:54 | 33.80528 | -83.03358 | 21926 ft | 492 kts | 54° |
| 2026-05-03 22:55 | 33.82348 | -82.99855 | 22238 ft | 496 kts | 55° |
| 2026-05-03 22:55 | 33.84183 | -82.96303 | 22553 ft | 500 kts | 55° |
| 2026-05-03 22:55 | 33.86024 | -82.92732 | 22832 ft | 505 kts | 55° |
| 2026-05-03 22:55 | 33.87881 | -82.89127 | 23122 ft | 509 kts | 55° |
| 2026-05-03 22:56 | 33.89752 | -82.85489 | 23435 ft | 513 kts | 56° |
| 2026-05-03 22:56 | 33.91585 | -82.81923 | 23718 ft | 518 kts | 56° |
| 2026-05-03 22:56 | 33.93512 | -82.78172 | 23998 ft | 521 kts | 56° |
| 2026-05-03 22:56 | 33.95412 | -82.74469 | 24343 ft | 522 kts | 56° |
| 2026-05-03 22:57 | 33.97307 | -82.70773 | 24631 ft | 525 kts | 56° |
| 2026-05-03 22:57 | 33.99226 | -82.67023 | 24927 ft | 527 kts | 56° |
| 2026-05-03 22:57 | 34.01155 | -82.63224 | 25187 ft | 531 kts | 56° |
| 2026-05-03 22:57 | 34.03078 | -82.59413 | 25515 ft | 532 kts | 56° |
| 2026-05-03 22:58 | 34.05001 | -82.55598 | 25813 ft | 535 kts | 56° |
| 2026-05-03 22:58 | 34.06943 | -82.51745 | 26093 ft | 538 kts | 56° |
| 2026-05-03 22:58 | 34.08887 | -82.47886 | 26365 ft | 541 kts | 56° |
| 2026-05-03 22:58 | 34.10842 | -82.44003 | 26688 ft | 542 kts | 57° |
| 2026-05-03 22:59 | 34.12812 | -82.40086 | 26968 ft | 545 kts | 57° |
| 2026-05-03 22:59 | 34.14782 | -82.36168 | 27245 ft | 547 kts | 57° |
| 2026-05-03 22:59 | 34.16760 | -82.32227 | 27505 ft | 550 kts | 57° |
| 2026-05-03 22:59 | 34.18748 | -82.28260 | 27826 ft | 552 kts | 57° |
| 2026-05-03 23:00 | 34.20737 | -82.24288 | 28116 ft | 554 kts | 57° |
| 2026-05-03 23:00 | 34.22732 | -82.20301 | 28377 ft | 551 kts | 57° |
| 2026-05-03 23:00 | 34.24730 | -82.16302 | 28371 ft | 559 kts | 57° |
| 2026-05-03 23:00 | 34.26064 | -82.13633 | 28569 ft | 560 kts | 57° |
| 2026-05-03 23:01 | 34.28748 | -82.08299 | 28958 ft | 562 kts | 57° |
| 2026-05-03 23:01 | 34.30783 | -82.04263 | 29257 ft | 563 kts | 57° |
| 2026-05-03 23:01 | 34.32163 | -82.01523 | 29496 ft | 563 kts | 57° |
| 2026-05-03 23:01 | 34.34171 | -81.97532 | 29707 ft | 566 kts | 57° |
| 2026-05-03 23:02 | 34.36219 | -81.93453 | 29960 ft | 568 kts | 57° |
| 2026-05-03 23:02 | 34.38270 | -81.89361 | 30226 ft | 569 kts | 57° |
| 2026-05-03 23:02 | 34.40326 | -81.85253 | 30551 ft | 569 kts | 57° |
| 2026-05-03 23:02 | 34.42379 | -81.81147 | 30778 ft | 570 kts | 57° |
| 2026-05-03 23:03 | 34.44432 | -81.77036 | 31026 ft | 572 kts | 57° |
| 2026-05-03 23:03 | 34.46499 | -81.72891 | 31285 ft | 574 kts | 57° |
| 2026-05-03 23:03 | 34.48568 | -81.68736 | 31565 ft | 574 kts | 57° |
| 2026-05-03 23:03 | 34.50634 | -81.64585 | 31805 ft | 576 kts | 57° |
| 2026-05-03 23:04 | 34.52701 | -81.60424 | 32023 ft | 577 kts | 57° |
| 2026-05-03 23:04 | 34.54775 | -81.56245 | 32254 ft | 579 kts | 58° |
| 2026-05-03 23:04 | 34.56856 | -81.52048 | 32510 ft | 579 kts | 58° |
| 2026-05-03 23:04 | 34.58899 | -81.47924 | 32711 ft | 580 kts | 58° |
| 2026-05-03 23:05 | 34.61014 | -81.43647 | 32866 ft | 582 kts | 58° |
| 2026-05-03 23:05 | 34.63090 | -81.39445 | 33040 ft | 583 kts | 58° |
| 2026-05-03 23:05 | 34.65151 | -81.35267 | 33232 ft | 583 kts | 58° |
| 2026-05-03 23:05 | 34.67232 | -81.31045 | 33366 ft | 584 kts | 58° |
| 2026-05-03 23:06 | 34.69321 | -81.26800 | 33480 ft | 585 kts | 58° |
| 2026-05-03 23:06 | 34.71411 | -81.22550 | 33598 ft | 586 kts | 58° |
| 2026-05-03 23:06 | 34.73499 | -81.18299 | 33805 ft | 584 kts | 58° |
| 2026-05-03 23:06 | 34.75583 | -81.14049 | 33959 ft | 584 kts | 58° |
| 2026-05-03 23:07 | 34.77666 | -81.09799 | 34096 ft | 584 kts | 58° |
| 2026-05-03 23:07 | 34.79712 | -81.05530 | 34221 ft | 584 kts | 62° |
| 2026-05-03 23:07 | 34.81406 | -81.01047 | 34345 ft | 584 kts | 66° |
| 2026-05-03 23:07 | 34.83055 | -80.96535 | 34466 ft | 584 kts | 66° |
| 2026-05-03 23:08 | 34.84724 | -80.92011 | 34576 ft | 584 kts | 66° |
| 2026-05-03 23:08 | 34.86386 | -80.87515 | 34700 ft | 584 kts | 66° |
| 2026-05-03 23:08 | 34.88048 | -80.83010 | 34849 ft | 583 kts | 66° |
| 2026-05-03 23:08 | 34.89714 | -80.78483 | 34955 ft | 583 kts | 66° |
| 2026-05-03 23:09 | 34.91349 | -80.74030 | 35030 ft | 584 kts | 66° |
| 2026-05-03 23:09 | 34.94655 | -80.65004 | 35073 ft | 582 kts | 66° |
| 2026-05-03 23:10 | 34.97951 | -80.55979 | 35074 ft | 582 kts | 66° |
| 2026-05-03 23:10 | 35.01241 | -80.46946 | 35082 ft | 581 kts | 66° |
| 2026-05-03 23:11 | 35.04518 | -80.37922 | 35089 ft | 582 kts | 66° |
| 2026-05-03 23:11 | 35.07786 | -80.28898 | 35096 ft | 582 kts | 67° |
| 2026-05-03 23:12 | 35.11051 | -80.19856 | 35090 ft | 582 kts | 67° |
| 2026-05-03 23:12 | 35.14307 | -80.10812 | 35095 ft | 582 kts | 67° |
| 2026-05-03 23:13 | 35.17555 | -80.01766 | 35087 ft | 581 kts | 67° |
| 2026-05-03 23:13 | 35.20796 | -79.92720 | 35085 ft | 581 kts | 67° |
| 2026-05-03 23:14 | 35.24042 | -79.83651 | 35078 ft | 580 kts | 67° |
| 2026-05-03 23:14 | 35.27265 | -79.74624 | 35095 ft | 580 kts | 67° |
| 2026-05-03 23:15 | 35.30494 | -79.65550 | 35101 ft | 580 kts | 67° |
| 2026-05-03 23:15 | 35.33707 | -79.56491 | 35108 ft | 579 kts | 67° |
| 2026-05-03 23:16 | 35.36884 | -79.47510 | 35194 ft | 579 kts | 67° |
| 2026-05-03 23:16 | 35.38487 | -79.42972 | 35319 ft | 579 kts | 67° |
| 2026-05-03 23:16 | 35.40102 | -79.38391 | 35466 ft | 578 kts | 67° |
| 2026-05-03 23:16 | 35.41673 | -79.33926 | 35575 ft | 578 kts | 67° |
| 2026-05-03 23:17 | 35.43264 | -79.29400 | 35670 ft | 578 kts | 67° |
| 2026-05-03 23:17 | 35.46439 | -79.20343 | 35896 ft | 578 kts | 68° |
| 2026-05-03 23:18 | 35.49613 | -79.11269 | 36070 ft | 578 kts | 68° |
| 2026-05-03 23:18 | 35.52774 | -79.02202 | 36305 ft | 577 kts | 68° |
| 2026-05-03 23:19 | 35.55922 | -78.93143 | 36478 ft | 577 kts | 68° |
| 2026-05-03 23:19 | 35.59070 | -78.84062 | 36681 ft | 577 kts | 68° |
| 2026-05-03 23:20 | 35.62207 | -78.74986 | 36846 ft | 577 kts | 68° |
| 2026-05-03 23:20 | 35.65321 | -78.65900 | 37171 ft | 568 kts | 65° |
| 2026-05-03 23:20 | 35.66820 | -78.61515 | 37085 ft | 556 kts | 65° |
| 2026-05-03 23:21 | 35.68277 | -78.57272 | 37082 ft | 551 kts | 65° |
| 2026-05-03 23:21 | 35.71266 | -78.48563 | 37082 ft | 556 kts | 65° |
| 2026-05-03 23:22 | 35.75779 | -78.35342 | 37077 ft | 558 kts | 65° |
| 2026-05-03 23:22 | 35.78774 | -78.26539 | 37098 ft | 558 kts | 65° |
| 2026-05-03 23:23 | 35.81766 | -78.17717 | 37099 ft | 558 kts | 65° |
| 2026-05-03 23:23 | 35.84757 | -78.08875 | 37109 ft | 559 kts | 65° |
| 2026-05-03 23:24 | 35.87744 | -78.00017 | 37108 ft | 559 kts | 65° |
| 2026-05-03 23:24 | 35.90725 | -77.91149 | 37110 ft | 560 kts | 65° |
| 2026-05-03 23:25 | 35.93701 | -77.82272 | 37100 ft | 561 kts | 65° |
| 2026-05-03 23:25 | 35.96841 | -77.73485 | 37097 ft | 558 kts | 58° |
| 2026-05-03 23:26 | 36.01189 | -77.65673 | 37091 ft | 550 kts | 44° |
| 2026-05-03 23:26 | 36.06351 | -77.58779 | 37091 ft | 548 kts | 41° |
| 2026-05-03 23:27 | 36.11535 | -77.51814 | 37094 ft | 548 kts | 41° |
| 2026-05-03 23:27 | 36.16682 | -77.44876 | 37089 ft | 549 kts | 41° |
| 2026-05-03 23:28 | 36.21841 | -77.37914 | 37098 ft | 549 kts | 41° |
| 2026-05-03 23:28 | 36.26990 | -77.30955 | 37099 ft | 549 kts | 41° |
| 2026-05-03 23:29 | 36.32199 | -77.24063 | 37098 ft | 544 kts | 36° |
| 2026-05-03 23:29 | 36.37802 | -77.17839 | 37096 ft | 542 kts | 35° |
| 2026-05-03 23:30 | 36.43394 | -77.11583 | 37101 ft | 542 kts | 35° |
| 2026-05-03 23:30 | 36.48984 | -77.05310 | 37082 ft | 542 kts | 35° |
| 2026-05-03 23:31 | 36.54597 | -76.98999 | 37077 ft | 542 kts | 35° |
| 2026-05-03 23:31 | 36.60165 | -76.92728 | 37090 ft | 541 kts | 35° |
| 2026-05-03 23:32 | 36.65753 | -76.86422 | 37087 ft | 541 kts | 35° |
| 2026-05-03 23:32 | 36.71308 | -76.80139 | 37088 ft | 541 kts | 35° |
| 2026-05-03 23:33 | 36.76885 | -76.73819 | 37094 ft | 541 kts | 35° |
| 2026-05-03 23:33 | 36.82420 | -76.67535 | 37092 ft | 540 kts | 35° |
| 2026-05-03 23:34 | 36.87976 | -76.61213 | 37086 ft | 540 kts | 35° |
| 2026-05-03 23:34 | 36.93545 | -76.54863 | 37083 ft | 540 kts | 35° |
| 2026-05-03 23:35 | 36.99085 | -76.48533 | 37067 ft | 540 kts | 35° |
| 2026-05-03 23:35 | 37.04619 | -76.42196 | 37064 ft | 540 kts | 35° |
| 2026-05-03 23:36 | 37.10144 | -76.35858 | 37063 ft | 540 kts | 35° |
| 2026-05-03 23:36 | 37.15681 | -76.29492 | 37062 ft | 540 kts | 35° |
| 2026-05-03 23:37 | 37.21201 | -76.23133 | 37068 ft | 540 kts | 35° |
| 2026-05-03 23:37 | 37.26724 | -76.16757 | 37074 ft | 540 kts | 35° |
| 2026-05-03 23:38 | 37.32243 | -76.10372 | 37078 ft | 540 kts | 35° |
| 2026-05-03 23:38 | 37.36908 | -76.04964 | 37093 ft | 540 kts | 35° |
| 2026-05-03 23:39 | 37.42425 | -75.98557 | 37087 ft | 540 kts | 35° |
| 2026-05-03 23:39 | 37.47936 | -75.92142 | 37084 ft | 540 kts | 35° |
| 2026-05-03 23:40 | 37.53535 | -75.85926 | 37078 ft | 531 kts | 28° |
| 2026-05-03 23:40 | 37.59727 | -75.81053 | 37073 ft | 522 kts | 21° |
| 2026-05-03 23:41 | 37.65981 | -75.76377 | 37080 ft | 522 kts | 21° |
| 2026-05-03 23:41 | 37.72221 | -75.71680 | 37076 ft | 522 kts | 21° |
| 2026-05-03 23:42 | 37.78461 | -75.66982 | 37072 ft | 521 kts | 21° |
| 2026-05-03 23:42 | 37.84665 | -75.62262 | 37056 ft | 524 kts | 25° |
| 2026-05-03 23:43 | 37.90679 | -75.57014 | 37048 ft | 526 kts | 26° |
| 2026-05-03 23:43 | 37.96694 | -75.51783 | 37056 ft | 525 kts | 26° |
| 2026-05-03 23:44 | 38.02725 | -75.46527 | 37061 ft | 525 kts | 26° |
| 2026-05-03 23:44 | 38.08709 | -75.41201 | 37061 ft | 527 kts | 28° |
| 2026-05-03 23:45 | 38.14434 | -75.35744 | 37054 ft | 528 kts | 28° |
| 2026-05-03 23:45 | 38.20339 | -75.30121 | 37047 ft | 528 kts | 28° |
| 2026-05-03 23:46 | 38.26199 | -75.24573 | 37050 ft | 528 kts | 28° |
| 2026-05-03 23:46 | 38.32075 | -75.19009 | 37054 ft | 528 kts | 28° |
| 2026-05-03 23:47 | 38.37971 | -75.13414 | 37053 ft | 528 kts | 28° |
| 2026-05-03 23:47 | 38.43844 | -75.07828 | 37053 ft | 528 kts | 28° |
| 2026-05-03 23:48 | 38.49606 | -75.01886 | 37042 ft | 533 kts | 34° |
| 2026-05-03 23:48 | 38.55183 | -74.95676 | 37035 ft | 531 kts | 32° |
| 2026-05-03 23:49 | 38.60908 | -74.89792 | 37038 ft | 529 kts | 31° |
| 2026-05-03 23:49 | 38.66637 | -74.83910 | 37034 ft | 530 kts | 31° |
| 2026-05-03 23:50 | 38.71426 | -74.78934 | 37038 ft | 530 kts | 32° |
| 2026-05-03 23:50 | 38.77969 | -74.71754 | 37022 ft | 534 kts | 36° |
| 2026-05-03 23:51 | 38.83414 | -74.65380 | 37020 ft | 533 kts | 35° |
| 2026-05-03 23:51 | 38.88896 | -74.58974 | 37028 ft | 533 kts | 36° |
| 2026-05-03 23:52 | 38.94366 | -74.52563 | 37030 ft | 533 kts | 36° |
| 2026-05-03 23:52 | 38.99968 | -74.46414 | 37026 ft | 529 kts | 32° |
| 2026-05-03 23:53 | 39.04704 | -74.41404 | 37027 ft | 529 kts | 33° |
| 2026-05-03 23:53 | 39.10369 | -74.35328 | 37023 ft | 530 kts | 33° |
| 2026-05-03 23:54 | 39.15993 | -74.29241 | 37016 ft | 530 kts | 33° |
| 2026-05-03 23:54 | 39.21628 | -74.23123 | 37016 ft | 529 kts | 33° |
| 2026-05-03 23:55 | 39.27270 | -74.16983 | 37015 ft | 529 kts | 33° |
| 2026-05-03 23:55 | 39.32893 | -74.10854 | 37017 ft | 528 kts | 33° |
| 2026-05-03 23:56 | 39.38502 | -74.04726 | 37017 ft | 528 kts | 34° |
| 2026-05-03 23:56 | 39.44087 | -73.98609 | 37006 ft | 527 kts | 34° |
| 2026-05-03 23:57 | 39.49671 | -73.92473 | 36995 ft | 527 kts | 34° |
| 2026-05-03 23:57 | 39.55271 | -73.86307 | 36993 ft | 527 kts | 34° |
| 2026-05-03 23:58 | 39.60827 | -73.80176 | 37002 ft | 526 kts | 34° |
| 2026-05-03 23:58 | 39.66372 | -73.74044 | 37002 ft | 526 kts | 34° |
| 2026-05-03 23:59 | 39.71964 | -73.67847 | 37002 ft | 525 kts | 34° |
| 2026-05-03 23:59 | 39.77506 | -73.61691 | 37001 ft | 525 kts | 34° |
| 2026-05-04 00:00 | 39.83021 | -73.55553 | 36995 ft | 525 kts | 34° |
| 2026-05-04 00:00 | 39.88591 | -73.49346 | 36998 ft | 525 kts | 34° |
| 2026-05-04 00:01 | 39.94099 | -73.43209 | 36996 ft | 524 kts | 34° |
| 2026-05-04 00:01 | 39.99656 | -73.37002 | 37002 ft | 524 kts | 35° |
| 2026-05-04 00:02 | 40.05179 | -73.30818 | 36991 ft | 524 kts | 35° |
| 2026-05-04 00:02 | 40.10702 | -73.24619 | 36978 ft | 523 kts | 35° |
| 2026-05-04 00:03 | 40.16198 | -73.18426 | 36974 ft | 523 kts | 35° |
| 2026-05-04 00:03 | 40.21693 | -73.12219 | 36970 ft | 523 kts | 35° |
| 2026-05-04 00:04 | 40.27182 | -73.06006 | 36963 ft | 522 kts | 35° |
| 2026-05-04 00:04 | 40.32699 | -72.99748 | 36957 ft | 522 kts | 35° |
| 2026-05-04 00:05 | 40.38187 | -72.93509 | 36955 ft | 522 kts | 35° |
| 2026-05-04 00:05 | 40.43662 | -72.87270 | 36948 ft | 522 kts | 36° |
| 2026-05-04 00:06 | 40.49122 | -72.81034 | 36945 ft | 522 kts | 36° |
| 2026-05-04 00:06 | 40.54595 | -72.74770 | 36937 ft | 521 kts | 36° |
| 2026-05-04 00:07 | 40.60057 | -72.68505 | 36942 ft | 521 kts | 36° |
| 2026-05-04 00:07 | 40.65452 | -72.62158 | 36934 ft | 524 kts | 42° |
| 2026-05-04 00:08 | 40.69690 | -72.54273 | 36932 ft | 534 kts | 61° |
| 2026-05-04 00:08 | 40.72233 | -72.44985 | 36929 ft | 537 kts | 71° |
| 2026-05-04 00:09 | 40.74493 | -72.35644 | 36930 ft | 538 kts | 70° |
| 2026-05-04 00:09 | 40.76786 | -72.26202 | 36931 ft | 538 kts | 70° |
| 2026-05-04 00:10 | 40.79051 | -72.16817 | 36938 ft | 537 kts | 70° |
| 2026-05-04 00:10 | 40.81304 | -72.07428 | 36941 ft | 537 kts | 71° |
| 2026-05-04 00:11 | 40.83549 | -71.98035 | 36949 ft | 537 kts | 71° |
| 2026-05-04 00:11 | 40.85793 | -71.88611 | 36943 ft | 537 kts | 71° |
| 2026-05-04 00:12 | 40.88026 | -71.79192 | 36935 ft | 537 kts | 71° |
| 2026-05-04 00:12 | 40.90249 | -71.69778 | 36917 ft | 537 kts | 71° |
| 2026-05-04 00:13 | 40.92464 | -71.60358 | 36902 ft | 537 kts | 71° |
| 2026-05-04 00:13 | 40.94660 | -71.50980 | 36898 ft | 536 kts | 71° |
| 2026-05-04 00:14 | 40.96867 | -71.41517 | 36905 ft | 536 kts | 71° |
| 2026-05-04 00:14 | 40.99052 | -71.32109 | 36915 ft | 536 kts | 71° |
| 2026-05-04 00:15 | 41.01232 | -71.22681 | 36904 ft | 536 kts | 72° |
| 2026-05-04 00:15 | 41.03407 | -71.13238 | 36907 ft | 536 kts | 72° |
| 2026-05-04 00:16 | 41.05570 | -71.03804 | 36911 ft | 536 kts | 72° |
| 2026-05-04 00:16 | 41.07728 | -70.94357 | 36905 ft | 536 kts | 72° |
| 2026-05-04 00:17 | 41.09872 | -70.84930 | 36889 ft | 536 kts | 72° |
| 2026-05-04 00:17 | 41.12013 | -70.75472 | 36887 ft | 536 kts | 72° |
| 2026-05-04 00:18 | 41.14156 | -70.65970 | 36887 ft | 536 kts | 72° |
| 2026-05-04 00:18 | 41.16273 | -70.56541 | 36886 ft | 536 kts | 72° |
| 2026-05-04 00:19 | 41.18390 | -70.47069 | 36883 ft | 536 kts | 72° |
| 2026-05-04 00:19 | 41.20513 | -70.37528 | 36873 ft | 536 kts | 72° |
| 2026-05-04 00:20 | 41.22601 | -70.28107 | 36871 ft | 536 kts | 73° |
| 2026-05-04 00:20 | 41.24708 | -70.18562 | 36878 ft | 535 kts | 73° |
| 2026-05-04 00:21 | 41.26843 | -70.09104 | 36867 ft | 535 kts | 68° |
| 2026-05-04 00:21 | 41.30377 | -70.00515 | 36873 ft | 528 kts | 49° |
| 2026-05-04 00:22 | 41.35420 | -69.93563 | 36866 ft | 523 kts | 39° |
| 2026-05-04 00:22 | 41.40748 | -69.86876 | 36861 ft | 524 kts | 40° |
| 2026-05-04 00:23 | 41.46017 | -69.80207 | 36861 ft | 524 kts | 40° |
| 2026-05-04 00:23 | 41.51285 | -69.73522 | 36860 ft | 524 kts | 40° |
| 2026-05-04 00:24 | 41.56580 | -69.66789 | 36858 ft | 524 kts | 40° |
| 2026-05-04 00:24 | 41.61839 | -69.60086 | 36853 ft | 524 kts | 40° |
| 2026-05-04 00:25 | 41.67107 | -69.53356 | 36853 ft | 524 kts | 40° |
| 2026-05-04 00:25 | 41.72397 | -69.46582 | 36847 ft | 524 kts | 40° |
| 2026-05-04 00:26 | 41.77658 | -69.39829 | 36844 ft | 525 kts | 40° |
| 2026-05-04 00:26 | 41.82897 | -69.33088 | 36847 ft | 525 kts | 40° |
| 2026-05-04 00:27 | 41.88187 | -69.26264 | 36840 ft | 525 kts | 41° |
| 2026-05-04 00:27 | 41.93437 | -69.19476 | 36845 ft | 525 kts | 41° |
| 2026-05-04 00:28 | 41.98690 | -69.12667 | 36841 ft | 525 kts | 41° |
| 2026-05-04 00:28 | 42.03932 | -69.05855 | 36842 ft | 525 kts | 41° |
| 2026-05-04 00:29 | 42.09156 | -68.99049 | 36838 ft | 524 kts | 41° |
| 2026-05-04 00:29 | 42.14387 | -68.92220 | 36817 ft | 524 kts | 41° |
| 2026-05-04 00:30 | 42.19647 | -68.85336 | 36812 ft | 524 kts | 41° |
| 2026-05-04 00:30 | 42.24854 | -68.78503 | 36804 ft | 524 kts | 41° |
| 2026-05-04 00:31 | 42.30085 | -68.71623 | 36804 ft | 523 kts | 41° |
| 2026-05-04 00:31 | 42.35260 | -68.64801 | 36819 ft | 523 kts | 41° |
| 2026-05-04 00:32 | 42.40496 | -68.57881 | 36820 ft | 522 kts | 42° |
| 2026-05-04 00:32 | 42.45681 | -68.51011 | 36820 ft | 522 kts | 42° |
| 2026-05-04 00:33 | 42.53425 | -68.40721 | 36809 ft | 521 kts | 42° |
| 2026-05-04 00:34 | 42.58604 | -68.33818 | 36787 ft | 521 kts | 42° |
| 2026-05-04 00:34 | 42.63761 | -68.26927 | 36781 ft | 520 kts | 42° |
| 2026-05-04 00:35 | 42.68892 | -68.20054 | 36776 ft | 520 kts | 43° |
| 2026-05-04 00:35 | 42.74059 | -68.13116 | 36767 ft | 520 kts | 43° |
| 2026-05-04 00:36 | 42.79183 | -68.06218 | 36761 ft | 519 kts | 43° |
| 2026-05-04 00:36 | 42.84312 | -67.99296 | 36755 ft | 519 kts | 43° |
| 2026-05-04 00:37 | 42.89428 | -67.92376 | 36749 ft | 519 kts | 43° |
| 2026-05-04 00:37 | 42.94548 | -67.85432 | 36750 ft | 519 kts | 43° |
| 2026-05-04 00:38 | 42.99680 | -67.78456 | 36744 ft | 519 kts | 43° |
| 2026-05-04 00:38 | 43.04798 | -67.71481 | 36739 ft | 519 kts | 43° |
| 2026-05-04 00:39 | 43.09876 | -67.64544 | 36731 ft | 519 kts | 43° |
| 2026-05-04 00:39 | 43.14991 | -67.57537 | 36729 ft | 518 kts | 44° |
| 2026-05-04 00:40 | 43.20063 | -67.50572 | 36724 ft | 518 kts | 44° |
| 2026-05-04 00:40 | 43.25172 | -67.43539 | 36716 ft | 518 kts | 44° |
| 2026-05-04 00:41 | 43.30236 | -67.36551 | 36712 ft | 518 kts | 44° |
| 2026-05-04 00:41 | 43.35304 | -67.29540 | 36700 ft | 518 kts | 44° |
| 2026-05-04 00:42 | 43.40400 | -67.22471 | 36696 ft | 518 kts | 44° |
| 2026-05-04 00:42 | 43.45440 | -67.15463 | 36686 ft | 518 kts | 44° |
| 2026-05-04 00:43 | 43.50502 | -67.08409 | 36681 ft | 518 kts | 44° |
| 2026-05-04 00:43 | 43.55448 | -67.01135 | 36670 ft | 518 kts | 50° |
| 2026-05-04 00:44 | 43.58925 | -66.94363 | 36660 ft | 519 kts | 59° |
| 2026-05-04 00:44 | 43.62540 | -66.85766 | 36647 ft | 519 kts | 60° |
| 2026-05-04 00:45 | 43.66193 | -66.77201 | 36637 ft | 519 kts | 59° |
| 2026-05-04 00:45 | 43.69863 | -66.68600 | 36629 ft | 519 kts | 59° |
| 2026-05-04 00:46 | 43.73535 | -66.59963 | 36615 ft | 520 kts | 60° |
| 2026-05-04 00:46 | 43.77188 | -66.51341 | 36598 ft | 520 kts | 60° |
| 2026-05-04 00:47 | 43.80836 | -66.42705 | 36585 ft | 520 kts | 60° |
| 2026-05-04 00:47 | 43.84465 | -66.34088 | 36577 ft | 520 kts | 60° |
| 2026-05-04 00:48 | 43.88102 | -66.25424 | 36579 ft | 520 kts | 60° |
| 2026-05-04 00:48 | 43.91739 | -66.16722 | 36577 ft | 520 kts | 60° |
| 2026-05-04 00:49 | 43.95338 | -66.08078 | 36573 ft | 520 kts | 60° |
| 2026-05-04 00:49 | 43.98954 | -65.99366 | 36565 ft | 520 kts | 60° |
| 2026-05-04 00:50 | 44.02578 | -65.90610 | 36545 ft | 520 kts | 61° |
| 2026-05-04 00:50 | 44.06174 | -65.81891 | 36523 ft | 520 kts | 61° |
| 2026-05-04 00:51 | 44.09750 | -65.73196 | 36491 ft | 520 kts | 61° |
| 2026-05-04 00:51 | 44.13333 | -65.64460 | 36481 ft | 520 kts | 61° |
| 2026-05-04 00:52 | 44.16903 | -65.55724 | 36466 ft | 520 kts | 61° |
| 2026-05-04 00:52 | 44.20491 | -65.46921 | 36455 ft | 520 kts | 61° |
| 2026-05-04 00:53 | 44.24055 | -65.38147 | 36440 ft | 520 kts | 61° |
| 2026-05-04 00:53 | 44.27597 | -65.29404 | 36429 ft | 520 kts | 62° |
| 2026-05-04 00:54 | 44.31165 | -65.20568 | 36413 ft | 520 kts | 62° |
| 2026-05-04 00:54 | 44.34694 | -65.11800 | 36403 ft | 520 kts | 62° |
| 2026-05-04 00:55 | 44.38226 | -65.02999 | 36377 ft | 520 kts | 62° |
| 2026-05-04 00:55 | 44.41767 | -64.94145 | 36355 ft | 520 kts | 62° |
| 2026-05-04 00:56 | 44.45276 | -64.85347 | 36332 ft | 520 kts | 62° |
| 2026-05-04 00:56 | 44.48810 | -64.76456 | 36307 ft | 520 kts | 62° |
| 2026-05-04 00:57 | 44.52315 | -64.67611 | 36282 ft | 520 kts | 62° |
| 2026-05-04 00:57 | 44.55819 | -64.58739 | 36280 ft | 520 kts | 62° |
| 2026-05-04 00:58 | 44.59310 | -64.49875 | 36258 ft | 520 kts | 63° |
| 2026-05-04 00:58 | 44.62819 | -64.40935 | 36246 ft | 520 kts | 63° |
| 2026-05-04 00:59 | 44.66297 | -64.32047 | 36231 ft | 521 kts | 63° |
| 2026-05-04 00:59 | 44.69768 | -64.23146 | 36212 ft | 521 kts | 63° |
| 2026-05-04 01:00 | 44.73257 | -64.14172 | 36205 ft | 521 kts | 63° |
| 2026-05-04 01:00 | 44.76731 | -64.05206 | 36197 ft | 522 kts | 63° |
| 2026-05-04 01:01 | 44.80191 | -63.96251 | 36181 ft | 522 kts | 63° |
| 2026-05-04 01:01 | 44.83649 | -63.87269 | 36163 ft | 522 kts | 63° |
| 2026-05-04 01:02 | 44.87097 | -63.78285 | 36147 ft | 521 kts | 64° |
| 2026-05-04 01:02 | 44.90529 | -63.69309 | 36127 ft | 520 kts | 64° |
| 2026-05-04 01:03 | 44.93973 | -63.60275 | 36118 ft | 520 kts | 64° |
| 2026-05-04 01:03 | 44.97382 | -63.51306 | 36117 ft | 519 kts | 64° |
| 2026-05-04 01:04 | 45.00782 | -63.42330 | 36119 ft | 519 kts | 64° |
| 2026-05-04 01:04 | 45.04172 | -63.33351 | 36116 ft | 518 kts | 64° |
| 2026-05-04 01:05 | 45.07561 | -63.24347 | 36110 ft | 518 kts | 64° |
| 2026-05-04 01:05 | 45.10951 | -63.15310 | 36097 ft | 518 kts | 64° |
| 2026-05-04 01:06 | 45.14316 | -63.06310 | 36089 ft | 518 kts | 65° |
| 2026-05-04 01:06 | 45.17673 | -62.97299 | 36081 ft | 518 kts | 65° |
| 2026-05-04 01:07 | 45.21026 | -62.88272 | 36078 ft | 517 kts | 65° |
| 2026-05-04 01:07 | 45.24361 | -62.79262 | 36078 ft | 518 kts | 65° |
| 2026-05-04 01:08 | 45.27713 | -62.70179 | 36068 ft | 517 kts | 65° |
| 2026-05-04 01:08 | 45.31041 | -62.61129 | 36069 ft | 517 kts | 65° |
| 2026-05-04 01:09 | 45.34353 | -62.52091 | 36084 ft | 517 kts | 65° |
| 2026-05-04 01:09 | 45.37665 | -62.43026 | 36085 ft | 517 kts | 66° |
| 2026-05-04 01:10 | 45.40985 | -62.33908 | 36081 ft | 517 kts | 66° |
| 2026-05-04 01:10 | 45.44277 | -62.24835 | 36079 ft | 517 kts | 66° |
| 2026-05-04 01:11 | 45.47562 | -62.15751 | 36077 ft | 517 kts | 66° |
| 2026-05-04 01:11 | 45.50847 | -62.06639 | 36081 ft | 517 kts | 66° |
| 2026-05-04 01:12 | 45.54123 | -61.97520 | 36079 ft | 517 kts | 66° |
| 2026-05-04 01:12 | 45.57404 | -61.88354 | 36083 ft | 517 kts | 66° |
| 2026-05-04 01:13 | 45.60663 | -61.79221 | 36080 ft | 517 kts | 66° |
| 2026-05-04 01:13 | 45.63910 | -61.70088 | 36076 ft | 517 kts | 67° |
| 2026-05-04 01:14 | 45.67164 | -61.60907 | 36073 ft | 517 kts | 67° |
| 2026-05-04 01:14 | 45.70387 | -61.51779 | 36074 ft | 517 kts | 67° |
| 2026-05-04 01:15 | 45.73635 | -61.42554 | 36066 ft | 517 kts | 67° |
| 2026-05-04 01:15 | 45.76868 | -61.33337 | 36067 ft | 517 kts | 68° |
| 2026-05-04 01:16 | 45.80085 | -61.24133 | 36073 ft | 517 kts | 68° |
| 2026-05-04 01:16 | 45.83290 | -61.14931 | 36084 ft | 517 kts | 68° |
| 2026-05-04 01:17 | 45.86496 | -61.05695 | 36107 ft | 517 kts | 68° |
| 2026-05-04 01:17 | 45.89673 | -60.96511 | 36138 ft | 517 kts | 68° |
| 2026-05-04 01:18 | 45.92874 | -60.87226 | 36151 ft | 516 kts | 68° |
| 2026-05-04 01:18 | 45.96037 | -60.78018 | 36161 ft | 516 kts | 68° |
| 2026-05-04 01:19 | 45.99209 | -60.68753 | 36175 ft | 516 kts | 69° |
| 2026-05-04 01:19 | 46.02373 | -60.59478 | 36188 ft | 516 kts | 69° |
| 2026-05-04 01:20 | 46.05528 | -60.50195 | 36202 ft | 516 kts | 69° |
| 2026-05-04 01:20 | 46.08677 | -60.40899 | 36211 ft | 516 kts | 69° |
| 2026-05-04 01:21 | 46.11812 | -60.31610 | 36218 ft | 516 kts | 69° |
| 2026-05-04 01:21 | 46.14943 | -60.22301 | 36218 ft | 516 kts | 69° |
| 2026-05-04 01:22 | 46.18078 | -60.12947 | 36225 ft | 516 kts | 70° |
| 2026-05-04 01:22 | 46.21176 | -60.03671 | 36226 ft | 516 kts | 70° |
| 2026-05-04 01:23 | 46.24299 | -59.94284 | 36224 ft | 516 kts | 70° |
| 2026-05-04 01:23 | 46.27393 | -59.84954 | 36237 ft | 516 kts | 70° |
| 2026-05-04 01:24 | 46.30487 | -59.75589 | 36249 ft | 516 kts | 70° |
| 2026-05-04 01:24 | 46.33564 | -59.66242 | 36269 ft | 515 kts | 70° |
| 2026-05-04 01:25 | 46.36628 | -59.56902 | 36288 ft | 516 kts | 70° |
| 2026-05-04 01:25 | 46.39713 | -59.47462 | 36305 ft | 516 kts | 71° |
| 2026-05-04 01:26 | 46.42765 | -59.38086 | 36312 ft | 516 kts | 71° |
| 2026-05-04 01:26 | 46.45813 | -59.28691 | 36313 ft | 516 kts | 71° |
| 2026-05-04 01:27 | 46.48870 | -59.19237 | 36320 ft | 517 kts | 71° |
| 2026-05-04 01:27 | 46.51915 | -59.09781 | 36329 ft | 517 kts | 71° |
| 2026-05-04 01:28 | 46.54959 | -59.00295 | 36343 ft | 518 kts | 71° |
| 2026-05-04 01:28 | 46.57479 | -58.92414 | 36347 ft | 519 kts | 71° |
| 2026-05-04 01:29 | 46.61022 | -58.81296 | 36363 ft | 520 kts | 71° |
| 2026-05-04 01:29 | 46.63554 | -58.73319 | 36369 ft | 520 kts | 72° |
| 2026-05-04 01:30 | 46.66586 | -58.63734 | 36389 ft | 521 kts | 72° |
| 2026-05-04 01:30 | 46.69598 | -58.54178 | 36402 ft | 521 kts | 72° |
| 2026-05-04 01:31 | 46.72630 | -58.44521 | 36414 ft | 522 kts | 72° |
| 2026-05-04 01:31 | 46.75635 | -58.34914 | 36424 ft | 522 kts | 72° |
| 2026-05-04 01:32 | 46.78627 | -58.25310 | 36432 ft | 522 kts | 72° |
| 2026-05-04 01:32 | 46.81621 | -58.15662 | 36448 ft | 522 kts | 72° |
| 2026-05-04 01:33 | 46.84617 | -58.05976 | 36455 ft | 522 kts | 72° |
| 2026-05-04 01:33 | 46.87604 | -57.96281 | 36464 ft | 522 kts | 72° |
| 2026-05-04 01:34 | 46.90572 | -57.86607 | 36487 ft | 522 kts | 72° |
| 2026-05-04 01:34 | 46.93530 | -57.76932 | 36493 ft | 522 kts | 72° |
| 2026-05-04 01:35 | 46.96488 | -57.67215 | 36502 ft | 522 kts | 72° |
| 2026-05-04 01:35 | 46.99434 | -57.57503 | 36519 ft | 521 kts | 72° |
| 2026-05-04 01:36 | 47.02367 | -57.47795 | 36522 ft | 521 kts | 73° |
| 2026-05-04 01:36 | 47.05286 | -57.38095 | 36531 ft | 521 kts | 73° |
| 2026-05-04 01:37 | 47.08195 | -57.28391 | 36543 ft | 521 kts | 73° |
| 2026-05-04 01:37 | 47.11110 | -57.18628 | 36552 ft | 520 kts | 73° |
| 2026-05-04 01:38 | 47.14005 | -57.08893 | 36554 ft | 520 kts | 73° |
| 2026-05-04 01:38 | 47.16883 | -56.99175 | 36576 ft | 520 kts | 73° |
| 2026-05-04 01:39 | 47.19767 | -56.89403 | 36578 ft | 519 kts | 73° |
| 2026-05-04 01:39 | 47.22617 | -56.79704 | 36584 ft | 519 kts | 73° |
| 2026-05-04 01:40 | 47.25486 | -56.69905 | 36590 ft | 519 kts | 73° |
| 2026-05-04 01:40 | 47.28326 | -56.60162 | 36586 ft | 519 kts | 73° |
| 2026-05-04 01:41 | 47.31153 | -56.50427 | 36592 ft | 518 kts | 73° |
| 2026-05-04 01:41 | 47.33992 | -56.40614 | 36595 ft | 518 kts | 73° |
| 2026-05-04 01:42 | 47.36811 | -56.30828 | 36595 ft | 519 kts | 73° |
| 2026-05-04 01:42 | 47.39612 | -56.21066 | 36599 ft | 519 kts | 73° |
| 2026-05-04 01:43 | 47.42432 | -56.11200 | 36598 ft | 519 kts | 73° |
| 2026-05-04 01:43 | 47.45209 | -56.01440 | 36599 ft | 520 kts | 73° |
| 2026-05-04 01:44 | 47.48016 | -55.91538 | 36599 ft | 520 kts | 74° |
| 2026-05-04 01:44 | 47.50803 | -55.81666 | 36605 ft | 521 kts | 74° |
| 2026-05-04 01:45 | 47.53585 | -55.71769 | 36612 ft | 522 kts | 74° |
| 2026-05-04 01:45 | 47.57758 | -55.56850 | 36623 ft | 524 kts | 74° |
| 2026-05-04 01:46 | 47.60530 | -55.46890 | 36633 ft | 524 kts | 74° |
| 2026-05-04 01:46 | 47.63293 | -55.36918 | 36659 ft | 525 kts | 74° |
| 2026-05-04 01:47 | 47.66069 | -55.26858 | 36668 ft | 526 kts | 74° |
| 2026-05-04 01:47 | 47.68827 | -55.16820 | 36684 ft | 526 kts | 74° |
| 2026-05-04 01:48 | 47.71577 | -55.06769 | 36691 ft | 526 kts | 74° |
| 2026-05-04 01:48 | 47.74337 | -54.96640 | 36703 ft | 527 kts | 74° |
| 2026-05-04 01:49 | 47.77068 | -54.86572 | 36713 ft | 527 kts | 74° |
| 2026-05-04 01:49 | 47.79791 | -54.76488 | 36715 ft | 527 kts | 74° |
| 2026-05-04 01:50 | 47.82515 | -54.66362 | 36715 ft | 527 kts | 74° |
| 2026-05-04 01:50 | 47.85229 | -54.56226 | 36723 ft | 528 kts | 74° |
| 2026-05-04 01:51 | 47.87956 | -54.46001 | 36728 ft | 529 kts | 74° |
| 2026-05-04 01:51 | 47.90653 | -54.35840 | 36732 ft | 530 kts | 74° |
| 2026-05-04 01:52 | 47.93354 | -54.25622 | 36738 ft | 531 kts | 74° |
| 2026-05-04 01:52 | 47.96072 | -54.15294 | 36745 ft | 532 kts | 74° |
| 2026-05-04 01:53 | 47.98763 | -54.05019 | 36764 ft | 533 kts | 74° |
| 2026-05-04 01:53 | 48.01454 | -53.94701 | 36770 ft | 534 kts | 74° |
| 2026-05-04 01:54 | 48.04140 | -53.84359 | 36765 ft | 535 kts | 74° |
| 2026-05-04 01:54 | 48.06820 | -53.73992 | 36764 ft | 536 kts | 74° |
| 2026-05-04 01:55 | 48.09498 | -53.63585 | 36770 ft | 537 kts | 74° |
| 2026-05-04 01:55 | 48.12162 | -53.53185 | 36776 ft | 537 kts | 74° |
| 2026-05-04 01:56 | 48.14836 | -53.42697 | 36780 ft | 538 kts | 74° |
| 2026-05-04 01:56 | 48.17488 | -53.32246 | 36789 ft | 538 kts | 74° |
| 2026-05-04 01:57 | 48.20154 | -53.21691 | 36792 ft | 539 kts | 74° |
| 2026-05-04 01:57 | 48.22793 | -53.11193 | 36794 ft | 540 kts | 74° |
| 2026-05-04 01:58 | 48.25426 | -53.00673 | 36797 ft | 540 kts | 74° |
| 2026-05-04 01:58 | 48.28051 | -52.90134 | 36800 ft | 540 kts | 74° |
| 2026-05-04 01:59 | 48.30688 | -52.79496 | 36801 ft | 541 kts | 73° |
| 2026-05-04 01:59 | 48.33302 | -52.68916 | 36805 ft | 542 kts | 73° |
| 2026-05-04 02:00 | 48.35910 | -52.58332 | 36805 ft | 542 kts | 73° |
| 2026-05-04 02:00 | 48.38538 | -52.47628 | 36818 ft | 543 kts | 73° |
| 2026-05-04 02:01 | 48.41142 | -52.36967 | 36829 ft | 544 kts | 73° |
| 2026-05-04 02:01 | 48.43735 | -52.26301 | 36825 ft | 544 kts | 73° |
| 2026-05-04 02:02 | 48.46321 | -52.15613 | 36835 ft | 544 kts | 73° |
| 2026-05-04 02:02 | 48.48896 | -52.04917 | 36832 ft | 544 kts | 73° |
| 2026-05-04 02:03 | 48.51452 | -51.94119 | 36835 ft | 544 kts | 73° |
| 2026-05-04 02:03 | 48.54205 | -51.83513 | 36841 ft | 546 kts | 70° |
| 2026-05-04 02:04 | 48.57036 | -51.72842 | 36851 ft | 546 kts | 71° |
| 2026-05-04 02:04 | 48.59807 | -51.62152 | 36851 ft | 546 kts | 71° |
| 2026-05-04 02:05 | 48.62539 | -51.51491 | 36849 ft | 547 kts | 71° |
| 2026-05-04 02:05 | 48.65274 | -51.40767 | 36857 ft | 547 kts | 71° |
| 2026-05-04 02:06 | 48.68017 | -51.29965 | 36863 ft | 547 kts | 71° |
| 2026-05-04 02:06 | 48.70730 | -51.19230 | 36865 ft | 548 kts | 71° |
| 2026-05-04 02:07 | 48.73433 | -51.08479 | 36870 ft | 548 kts | 71° |
| 2026-05-04 02:07 | 48.76141 | -50.97661 | 36876 ft | 548 kts | 71° |
| 2026-05-04 02:08 | 48.78839 | -50.86830 | 36879 ft | 548 kts | 71° |
| 2026-05-04 02:08 | 48.81521 | -50.76007 | 36881 ft | 548 kts | 71° |
| 2026-05-04 02:09 | 48.84195 | -50.65169 | 36889 ft | 548 kts | 71° |
| 2026-05-04 02:09 | 48.86853 | -50.54342 | 36891 ft | 548 kts | 70° |
| 2026-05-04 02:10 | 48.89505 | -50.43487 | 36894 ft | 548 kts | 70° |
| 2026-05-04 02:10 | 48.92160 | -50.32569 | 36897 ft | 548 kts | 70° |
| 2026-05-04 02:11 | 48.94782 | -50.21730 | 36906 ft | 548 kts | 70° |
| 2026-05-04 02:11 | 48.97409 | -50.10817 | 36908 ft | 548 kts | 70° |
| 2026-05-04 02:12 | 49.00009 | -49.99970 | 36912 ft | 548 kts | 70° |
| 2026-05-04 02:12 | 49.02691 | -49.89079 | 36917 ft | 547 kts | 69° |
| 2026-05-04 02:13 | 49.05422 | -49.78266 | 36918 ft | 547 kts | 69° |
| 2026-05-04 02:13 | 49.08140 | -49.67456 | 36918 ft | 547 kts | 69° |
| 2026-05-04 02:14 | 49.10400 | -49.58411 | 36926 ft | 547 kts | 68° |
| 2026-05-04 02:14 | 49.13112 | -49.47505 | 36930 ft | 547 kts | 68° |
| 2026-05-04 02:15 | 49.15787 | -49.36675 | 36950 ft | 546 kts | 69° |
| 2026-05-04 02:15 | 49.18449 | -49.25823 | 36955 ft | 546 kts | 69° |
| 2026-05-04 02:16 | 49.21102 | -49.14950 | 36943 ft | 545 kts | 69° |
| 2026-05-04 02:16 | 49.23738 | -49.04091 | 36935 ft | 545 kts | 68° |
| 2026-05-04 02:17 | 49.26356 | -48.93253 | 36939 ft | 544 kts | 68° |
| 2026-05-04 02:17 | 49.28968 | -48.82387 | 36954 ft | 543 kts | 68° |
| 2026-05-04 02:18 | 49.31562 | -48.71546 | 36968 ft | 542 kts | 68° |
| 2026-05-04 02:18 | 49.34159 | -48.60634 | 36974 ft | 542 kts | 68° |
| 2026-05-04 02:19 | 49.36721 | -48.49815 | 36979 ft | 541 kts | 68° |
| 2026-05-04 02:19 | 49.39280 | -48.38958 | 36990 ft | 539 kts | 68° |
| 2026-05-04 02:20 | 49.41807 | -48.28180 | 36963 ft | 535 kts | 68° |
| 2026-05-04 02:20 | 49.44311 | -48.17446 | 36978 ft | 534 kts | 68° |
| 2026-05-04 02:21 | 49.46816 | -48.06658 | 36995 ft | 532 kts | 68° |
| 2026-05-04 02:21 | 49.49293 | -47.95935 | 37001 ft | 532 kts | 68° |
| 2026-05-04 02:22 | 49.51753 | -47.85230 | 37009 ft | 531 kts | 68° |
| 2026-05-04 02:22 | 49.54192 | -47.74568 | 37010 ft | 530 kts | 68° |
| 2026-05-04 02:23 | 49.56630 | -47.63853 | 37014 ft | 529 kts | 68° |
| 2026-05-04 02:23 | 49.59057 | -47.53131 | 37015 ft | 528 kts | 68° |
| 2026-05-04 02:24 | 49.61460 | -47.42459 | 37019 ft | 527 kts | 68° |
| 2026-05-04 02:24 | 49.63849 | -47.31798 | 37025 ft | 526 kts | 68° |
| 2026-05-04 02:25 | 49.66224 | -47.21144 | 37034 ft | 525 kts | 68° |
| 2026-05-04 02:25 | 49.68583 | -47.10511 | 37036 ft | 523 kts | 68° |
| 2026-05-04 02:26 | 49.70924 | -46.99903 | 37040 ft | 522 kts | 68° |
| 2026-05-04 02:26 | 49.73261 | -46.89262 | 37046 ft | 521 kts | 68° |
| 2026-05-04 02:27 | 49.75580 | -46.78645 | 37054 ft | 520 kts | 68° |
| 2026-05-04 02:27 | 49.77891 | -46.68008 | 37062 ft | 520 kts | 68° |
| 2026-05-04 02:28 | 49.80179 | -46.57430 | 37067 ft | 520 kts | 68° |
| 2026-05-04 02:28 | 49.82457 | -46.46836 | 37051 ft | 520 kts | 68° |
| 2026-05-04 02:29 | 49.84739 | -46.36174 | 37059 ft | 520 kts | 68° |
| 2026-05-04 02:29 | 49.87000 | -46.25551 | 37066 ft | 520 kts | 68° |
| 2026-05-04 02:30 | 49.89253 | -46.14909 | 37071 ft | 520 kts | 68° |
| 2026-05-04 02:30 | 49.91512 | -46.04183 | 37076 ft | 521 kts | 68° |
| 2026-05-04 02:31 | 49.93751 | -45.93499 | 37081 ft | 522 kts | 68° |
| 2026-05-04 02:31 | 49.95979 | -45.82804 | 37094 ft | 523 kts | 68° |
| 2026-05-04 02:32 | 49.98218 | -45.72004 | 37092 ft | 523 kts | 68° |
| 2026-05-04 02:32 | 50.00438 | -45.61233 | 37099 ft | 524 kts | 68° |
| 2026-05-04 02:33 | 50.02653 | -45.50436 | 37104 ft | 525 kts | 68° |
| 2026-05-04 02:33 | 50.04857 | -45.39632 | 37109 ft | 526 kts | 68° |
| 2026-05-04 02:34 | 50.07071 | -45.28715 | 37117 ft | 527 kts | 68° |
| 2026-05-04 02:34 | 50.09257 | -45.17875 | 37123 ft | 528 kts | 68° |
| 2026-05-04 02:35 | 50.11457 | -45.06906 | 37133 ft | 529 kts | 68° |
| 2026-05-04 02:35 | 50.13636 | -44.95984 | 37142 ft | 529 kts | 68° |
| 2026-05-04 02:36 | 50.15803 | -44.85057 | 37148 ft | 529 kts | 68° |
| 2026-05-04 02:36 | 50.17977 | -44.74029 | 37153 ft | 529 kts | 68° |
| 2026-05-04 02:37 | 50.20123 | -44.63088 | 37162 ft | 529 kts | 68° |
| 2026-05-04 02:37 | 50.22267 | -44.52092 | 37169 ft | 529 kts | 68° |
| 2026-05-04 02:38 | 50.24393 | -44.41128 | 37171 ft | 529 kts | 68° |
| 2026-05-04 02:38 | 50.26519 | -44.30096 | 37180 ft | 528 kts | 69° |
| 2026-05-04 02:39 | 50.28628 | -44.19091 | 37184 ft | 528 kts | 69° |
| 2026-05-04 02:39 | 50.30711 | -44.08157 | 37183 ft | 527 kts | 69° |
| 2026-05-04 02:40 | 50.32789 | -43.97188 | 37187 ft | 526 kts | 69° |
| 2026-05-04 02:40 | 50.34858 | -43.86198 | 37190 ft | 524 kts | 69° |
| 2026-05-04 02:41 | 50.36908 | -43.75249 | 37189 ft | 523 kts | 69° |
| 2026-05-04 02:41 | 50.38937 | -43.64344 | 37197 ft | 522 kts | 69° |
| 2026-05-04 02:42 | 50.40956 | -43.53435 | 37203 ft | 520 kts | 69° |
| 2026-05-04 02:42 | 50.42966 | -43.42504 | 37216 ft | 519 kts | 69° |
| 2026-05-04 02:43 | 50.44948 | -43.31669 | 37220 ft | 517 kts | 69° |
| 2026-05-04 02:43 | 50.46917 | -43.20837 | 37223 ft | 516 kts | 70° |
| 2026-05-04 02:44 | 50.48870 | -43.10031 | 37228 ft | 515 kts | 70° |
| 2026-05-04 02:44 | 50.50813 | -42.99212 | 37229 ft | 514 kts | 70° |
| 2026-05-04 02:45 | 50.52736 | -42.88442 | 37236 ft | 513 kts | 70° |
| 2026-05-04 02:45 | 50.54661 | -42.77598 | 37240 ft | 511 kts | 70° |
| 2026-05-04 02:46 | 50.56557 | -42.66852 | 37246 ft | 510 kts | 71° |
| 2026-05-04 02:46 | 50.58437 | -42.56128 | 37244 ft | 509 kts | 71° |
| 2026-05-04 02:47 | 50.60306 | -42.45407 | 37251 ft | 508 kts | 71° |
| 2026-05-04 02:47 | 50.62166 | -42.34667 | 37250 ft | 508 kts | 71° |
| 2026-05-04 02:48 | 50.64011 | -42.23952 | 37256 ft | 507 kts | 71° |
| 2026-05-04 02:48 | 50.65850 | -42.13203 | 37260 ft | 507 kts | 72° |
| 2026-05-04 02:49 | 50.67669 | -42.02506 | 37264 ft | 506 kts | 72° |
| 2026-05-04 02:49 | 50.69480 | -41.91792 | 37274 ft | 506 kts | 72° |
| 2026-05-04 02:50 | 50.71285 | -41.81049 | 37274 ft | 505 kts | 72° |
| 2026-05-04 02:50 | 50.73074 | -41.70331 | 37281 ft | 505 kts | 72° |
| 2026-05-04 02:51 | 50.74851 | -41.59614 | 37285 ft | 505 kts | 73° |
| 2026-05-04 02:51 | 50.76614 | -41.48918 | 37288 ft | 505 kts | 73° |
| 2026-05-04 02:52 | 50.78380 | -41.38132 | 37298 ft | 504 kts | 73° |
| 2026-05-04 02:52 | 50.80126 | -41.27408 | 37300 ft | 504 kts | 73° |
| 2026-05-04 02:53 | 50.81860 | -41.16680 | 37304 ft | 503 kts | 73° |
| 2026-05-04 02:53 | 50.83582 | -41.05964 | 37308 ft | 503 kts | 74° |
| 2026-05-04 02:54 | 50.85294 | -40.95234 | 37312 ft | 503 kts | 74° |
| 2026-05-04 02:54 | 50.86991 | -40.84538 | 37321 ft | 502 kts | 74° |
| 2026-05-04 02:55 | 50.89528 | -40.68411 | 37325 ft | 502 kts | 74° |
| 2026-05-04 02:56 | 50.91198 | -40.57702 | 37329 ft | 502 kts | 75° |
| 2026-05-04 02:56 | 50.92863 | -40.46964 | 37329 ft | 502 kts | 75° |
| 2026-05-04 02:57 | 50.94243 | -40.38032 | 37332 ft | 501 kts | 75° |
| 2026-05-04 02:57 | 50.96174 | -40.25481 | 37341 ft | 501 kts | 75° |
| 2026-05-04 02:58 | 50.97815 | -40.14753 | 37342 ft | 501 kts | 75° |
| 2026-05-04 02:58 | 50.99179 | -40.05775 | 37345 ft | 501 kts | 75° |
| 2026-05-04 02:59 | 51.00918 | -39.95102 | 37350 ft | 499 kts | 69° |
| 2026-05-04 02:59 | 51.03586 | -39.84950 | 37346 ft | 498 kts | 65° |
| 2026-05-04 03:00 | 51.06288 | -39.74833 | 37353 ft | 498 kts | 66° |
| 2026-05-04 03:00 | 51.08878 | -39.64618 | 37352 ft | 498 kts | 67° |
| 2026-05-04 03:01 | 51.11447 | -39.54310 | 37359 ft | 498 kts | 67° |
| 2026-05-04 03:01 | 51.13972 | -39.44126 | 37364 ft | 498 kts | 67° |
| 2026-05-04 03:02 | 51.16511 | -39.33821 | 37367 ft | 498 kts | 68° |
| 2026-05-04 03:02 | 51.19023 | -39.23566 | 37359 ft | 498 kts | 68° |
| 2026-05-04 03:03 | 51.21541 | -39.13240 | 37364 ft | 498 kts | 68° |
| 2026-05-04 03:03 | 51.24035 | -39.02963 | 37362 ft | 497 kts | 68° |
| 2026-05-04 03:04 | 51.26519 | -38.92678 | 37364 ft | 497 kts | 68° |
| 2026-05-04 03:04 | 51.29001 | -38.82353 | 37388 ft | 497 kts | 68° |
| 2026-05-04 03:05 | 51.31463 | -38.72061 | 37394 ft | 496 kts | 68° |
| 2026-05-04 03:05 | 51.33913 | -38.61772 | 37397 ft | 496 kts | 69° |
| 2026-05-04 03:06 | 51.36370 | -38.51404 | 37393 ft | 496 kts | 69° |
| 2026-05-04 03:06 | 51.38798 | -38.41105 | 37377 ft | 496 kts | 69° |
| 2026-05-04 03:07 | 51.41233 | -38.30730 | 37377 ft | 495 kts | 69° |
| 2026-05-04 03:07 | 51.43636 | -38.20442 | 37382 ft | 495 kts | 69° |
| 2026-05-04 03:08 | 51.46036 | -38.10113 | 37390 ft | 495 kts | 69° |
| 2026-05-04 03:08 | 51.48436 | -37.99740 | 37393 ft | 494 kts | 69° |
| 2026-05-04 03:09 | 51.50814 | -37.89408 | 37398 ft | 494 kts | 69° |
| 2026-05-04 03:09 | 51.53178 | -37.79089 | 37394 ft | 494 kts | 69° |
| 2026-05-04 03:10 | 51.55534 | -37.68755 | 37396 ft | 494 kts | 69° |
| 2026-05-04 03:10 | 51.57893 | -37.58352 | 37399 ft | 493 kts | 69° |
| 2026-05-04 03:11 | 51.60232 | -37.47994 | 37401 ft | 493 kts | 70° |
| 2026-05-04 03:11 | 51.62555 | -37.37651 | 37405 ft | 493 kts | 70° |
| 2026-05-04 03:12 | 51.64884 | -37.27228 | 37404 ft | 493 kts | 70° |
| 2026-05-04 03:12 | 51.67194 | -37.16842 | 37406 ft | 493 kts | 70° |
| 2026-05-04 03:13 | 51.69491 | -37.06466 | 37405 ft | 493 kts | 70° |
| 2026-05-04 03:13 | 51.71784 | -36.96051 | 37403 ft | 493 kts | 70° |
| 2026-05-04 03:14 | 51.74081 | -36.85567 | 37413 ft | 493 kts | 70° |
| 2026-05-04 03:14 | 51.76352 | -36.75151 | 37414 ft | 493 kts | 70° |
| 2026-05-04 03:15 | 51.78617 | -36.64704 | 37411 ft | 493 kts | 70° |
| 2026-05-04 03:15 | 51.80867 | -36.54279 | 37414 ft | 493 kts | 70° |
| 2026-05-04 03:16 | 51.83110 | -36.43832 | 37410 ft | 493 kts | 70° |
| 2026-05-04 03:16 | 51.85354 | -36.33327 | 37419 ft | 493 kts | 70° |
| 2026-05-04 03:17 | 51.87578 | -36.22857 | 37417 ft | 493 kts | 70° |
| 2026-05-04 03:17 | 51.89809 | -36.12305 | 37419 ft | 493 kts | 71° |
| 2026-05-04 03:18 | 51.92015 | -36.01812 | 37422 ft | 493 kts | 71° |
| 2026-05-04 03:18 | 51.94211 | -35.91315 | 37420 ft | 493 kts | 71° |
| 2026-05-04 03:19 | 51.96410 | -35.80747 | 37423 ft | 493 kts | 71° |
| 2026-05-04 03:19 | 51.98593 | -35.70206 | 37422 ft | 493 kts | 71° |
| 2026-05-04 03:20 | 52.00764 | -35.59658 | 37426 ft | 493 kts | 71° |
| 2026-05-04 03:20 | 52.02920 | -35.49131 | 37428 ft | 493 kts | 71° |
| 2026-05-04 03:21 | 52.05082 | -35.38520 | 37428 ft | 493 kts | 71° |
| 2026-05-04 03:21 | 52.07227 | -35.27935 | 37426 ft | 493 kts | 71° |
| 2026-05-04 03:22 | 52.09356 | -35.17372 | 37431 ft | 493 kts | 71° |
| 2026-05-04 03:22 | 52.11474 | -35.06806 | 37425 ft | 493 kts | 71° |
| 2026-05-04 03:23 | 52.13587 | -34.96211 | 37428 ft | 493 kts | 71° |
| 2026-05-04 03:23 | 52.15701 | -34.85547 | 37427 ft | 493 kts | 71° |
| 2026-05-04 03:24 | 52.17788 | -34.74967 | 37428 ft | 493 kts | 71° |
| 2026-05-04 03:24 | 52.19877 | -34.64313 | 37427 ft | 493 kts | 72° |
| 2026-05-04 03:25 | 52.21953 | -34.53669 | 37435 ft | 493 kts | 72° |
| 2026-05-04 03:25 | 52.24015 | -34.43036 | 37429 ft | 493 kts | 72° |
| 2026-05-04 03:26 | 52.26082 | -34.32319 | 37433 ft | 493 kts | 72° |
| 2026-05-04 03:26 | 52.28120 | -34.21697 | 37432 ft | 493 kts | 72° |
| 2026-05-04 03:27 | 52.30156 | -34.11018 | 37433 ft | 493 kts | 72° |
| 2026-05-04 03:27 | 52.32186 | -34.00315 | 37433 ft | 493 kts | 72° |
| 2026-05-04 03:28 | 52.34215 | -33.89558 | 37432 ft | 493 kts | 72° |
| 2026-05-04 03:28 | 52.36211 | -33.78908 | 37432 ft | 493 kts | 72° |
| 2026-05-04 03:29 | 52.38209 | -33.68192 | 37432 ft | 493 kts | 72° |
| 2026-05-04 03:29 | 52.40207 | -33.57412 | 37431 ft | 493 kts | 72° |
| 2026-05-04 03:30 | 52.42186 | -33.46675 | 37430 ft | 493 kts | 72° |
| 2026-05-04 03:30 | 52.44155 | -33.35927 | 37430 ft | 493 kts | 72° |
| 2026-05-04 03:31 | 52.46124 | -33.25116 | 37431 ft | 493 kts | 72° |
| 2026-05-04 03:31 | 52.48070 | -33.14368 | 37433 ft | 493 kts | 72° |
| 2026-05-04 03:32 | 52.50006 | -33.03611 | 37430 ft | 493 kts | 73° |
| 2026-05-04 03:32 | 52.51937 | -32.92815 | 37432 ft | 493 kts | 73° |
| 2026-05-04 03:33 | 52.53866 | -32.81970 | 37429 ft | 493 kts | 73° |
| 2026-05-04 03:33 | 52.55785 | -32.71115 | 37426 ft | 494 kts | 73° |
| 2026-05-04 03:34 | 52.57686 | -32.60298 | 37431 ft | 494 kts | 73° |
| 2026-05-04 03:34 | 52.59587 | -32.49414 | 37425 ft | 494 kts | 73° |
| 2026-05-04 03:35 | 52.61465 | -32.38597 | 37429 ft | 494 kts | 73° |
| 2026-05-04 03:35 | 52.63338 | -32.27739 | 37432 ft | 494 kts | 73° |
| 2026-05-04 03:36 | 52.65217 | -32.16781 | 37428 ft | 494 kts | 73° |
| 2026-05-04 03:36 | 52.67066 | -32.05929 | 37426 ft | 494 kts | 73° |
| 2026-05-04 03:37 | 52.68905 | -31.95071 | 37423 ft | 494 kts | 73° |
| 2026-05-04 03:37 | 52.70751 | -31.84102 | 37424 ft | 494 kts | 73° |
| 2026-05-04 03:38 | 52.72571 | -31.73218 | 37421 ft | 494 kts | 73° |
| 2026-05-04 03:38 | 52.74390 | -31.62267 | 37423 ft | 494 kts | 73° |
| 2026-05-04 03:39 | 52.76194 | -31.51341 | 37424 ft | 494 kts | 73° |
| 2026-05-04 03:39 | 52.77986 | -31.40417 | 37419 ft | 494 kts | 74° |
| 2026-05-04 03:40 | 52.79772 | -31.29461 | 37417 ft | 493 kts | 74° |
| 2026-05-04 03:40 | 52.81542 | -31.18534 | 37419 ft | 493 kts | 74° |
| 2026-05-04 03:41 | 52.83016 | -31.09376 | 37417 ft | 493 kts | 74° |
| 2026-05-04 03:41 | 52.84777 | -30.98371 | 37418 ft | 493 kts | 74° |
| 2026-05-04 03:42 | 52.86516 | -30.87433 | 37418 ft | 493 kts | 74° |
| 2026-05-04 03:42 | 52.88248 | -30.76465 | 37415 ft | 493 kts | 74° |
| 2026-05-04 03:43 | 52.89973 | -30.65469 | 37415 ft | 493 kts | 74° |
| 2026-05-04 03:43 | 52.91685 | -30.54480 | 37417 ft | 493 kts | 74° |
| 2026-05-04 03:44 | 52.93390 | -30.43474 | 37416 ft | 492 kts | 74° |
| 2026-05-04 03:44 | 52.95080 | -30.32529 | 37414 ft | 492 kts | 74° |
| 2026-05-04 03:45 | 52.96771 | -30.21518 | 37413 ft | 492 kts | 74° |
| 2026-05-04 03:45 | 52.98454 | -30.10498 | 37410 ft | 492 kts | 74° |
| 2026-05-04 03:46 | 53.00103 | -29.99465 | 37413 ft | 492 kts | 75° |
| 2026-05-04 03:46 | 53.01596 | -29.88379 | 37407 ft | 492 kts | 75° |
| 2026-05-04 03:47 | 53.03200 | -29.77382 | 37409 ft | 492 kts | 75° |
| 2026-05-04 03:47 | 53.04801 | -29.66346 | 37405 ft | 492 kts | 75° |
| 2026-05-04 03:48 | 53.06383 | -29.55254 | 37409 ft | 492 kts | 75° |
| 2026-05-04 03:48 | 53.07943 | -29.44199 | 37407 ft | 492 kts | 76° |
| 2026-05-04 03:49 | 53.09494 | -29.33093 | 37404 ft | 492 kts | 76° |
| 2026-05-04 03:49 | 53.11024 | -29.22027 | 37408 ft | 492 kts | 76° |
| 2026-05-04 03:50 | 53.12553 | -29.10878 | 37403 ft | 492 kts | 76° |
| 2026-05-04 03:50 | 53.14056 | -28.99838 | 37404 ft | 492 kts | 76° |
| 2026-05-04 03:51 | 53.15557 | -28.88732 | 37404 ft | 491 kts | 76° |
| 2026-05-04 03:51 | 53.17050 | -28.77601 | 37402 ft | 491 kts | 76° |
| 2026-05-04 03:52 | 53.18526 | -28.66510 | 37398 ft | 491 kts | 76° |
| 2026-05-04 03:52 | 53.19993 | -28.55399 | 37397 ft | 491 kts | 77° |
| 2026-05-04 03:53 | 53.21449 | -28.44291 | 37395 ft | 491 kts | 77° |
| 2026-05-04 03:53 | 53.22899 | -28.33137 | 37393 ft | 490 kts | 77° |
| 2026-05-04 03:54 | 53.24328 | -28.22059 | 37393 ft | 490 kts | 77° |
| 2026-05-04 03:54 | 53.25752 | -28.10936 | 37393 ft | 490 kts | 77° |
| 2026-05-04 03:55 | 53.27170 | -27.99768 | 37388 ft | 490 kts | 77° |
| 2026-05-04 03:55 | 53.28568 | -27.88672 | 37383 ft | 489 kts | 77° |
| 2026-05-04 03:56 | 53.29959 | -27.77538 | 37386 ft | 489 kts | 77° |
| 2026-05-04 03:56 | 53.31343 | -27.66372 | 37388 ft | 489 kts | 78° |
| 2026-05-04 03:57 | 53.32707 | -27.55281 | 37383 ft | 489 kts | 78° |
| 2026-05-04 03:57 | 53.34059 | -27.44187 | 37380 ft | 488 kts | 78° |
| 2026-05-04 03:58 | 53.36077 | -27.27463 | 37379 ft | 488 kts | 78° |
| 2026-05-04 03:58 | 53.37407 | -27.16323 | 37375 ft | 488 kts | 78° |
| 2026-05-04 03:59 | 53.38724 | -27.05201 | 37374 ft | 487 kts | 78° |
| 2026-05-04 03:59 | 53.40031 | -26.94072 | 37375 ft | 487 kts | 78° |
| 2026-05-04 04:00 | 53.41327 | -26.82936 | 37365 ft | 487 kts | 78° |
| 2026-05-04 04:00 | 53.42611 | -26.71799 | 37368 ft | 487 kts | 78° |
| 2026-05-04 04:01 | 53.43889 | -26.60628 | 37370 ft | 487 kts | 78° |
| 2026-05-04 04:01 | 53.45155 | -26.49466 | 37366 ft | 487 kts | 78° |
| 2026-05-04 04:02 | 53.46408 | -26.38324 | 37363 ft | 487 kts | 79° |
| 2026-05-04 04:02 | 53.47649 | -26.27178 | 37363 ft | 486 kts | 79° |
| 2026-05-04 04:03 | 53.48884 | -26.15994 | 37362 ft | 486 kts | 79° |
| 2026-05-04 04:03 | 53.50103 | -26.04848 | 37359 ft | 486 kts | 79° |
| 2026-05-04 04:04 | 53.51319 | -25.93630 | 37360 ft | 486 kts | 79° |
| 2026-05-04 04:04 | 53.52517 | -25.82478 | 37358 ft | 485 kts | 79° |
| 2026-05-04 04:05 | 53.53705 | -25.71316 | 37355 ft | 485 kts | 79° |
| 2026-05-04 04:05 | 53.54882 | -25.60148 | 37352 ft | 485 kts | 79° |
| 2026-05-04 04:06 | 53.56044 | -25.49026 | 37351 ft | 485 kts | 79° |
| 2026-05-04 04:06 | 53.57204 | -25.37810 | 37348 ft | 484 kts | 79° |
| 2026-05-04 04:07 | 53.58345 | -25.26676 | 37345 ft | 484 kts | 79° |
| 2026-05-04 04:07 | 53.59482 | -25.15471 | 37343 ft | 484 kts | 79° |
| 2026-05-04 04:08 | 53.60601 | -25.04329 | 37340 ft | 484 kts | 79° |
| 2026-05-04 04:08 | 53.61710 | -24.93185 | 37336 ft | 484 kts | 79° |
| 2026-05-04 04:09 | 53.62814 | -24.81987 | 37333 ft | 484 kts | 79° |
| 2026-05-04 04:09 | 53.63903 | -24.70818 | 37336 ft | 483 kts | 79° |
| 2026-05-04 04:10 | 53.64982 | -24.59650 | 37333 ft | 483 kts | 79° |
| 2026-05-04 04:10 | 53.66048 | -24.48487 | 37331 ft | 483 kts | 79° |
| 2026-05-04 04:11 | 53.67107 | -24.37296 | 37329 ft | 483 kts | 79° |
| 2026-05-04 04:11 | 53.68158 | -24.26079 | 37326 ft | 483 kts | 79° |
| 2026-05-04 04:12 | 53.69193 | -24.14901 | 37328 ft | 482 kts | 80° |
| 2026-05-04 04:12 | 53.70218 | -24.03720 | 37322 ft | 482 kts | 80° |
| 2026-05-04 04:13 | 53.71229 | -23.92576 | 37318 ft | 482 kts | 80° |
| 2026-05-04 04:13 | 53.72234 | -23.81371 | 37320 ft | 482 kts | 80° |
| 2026-05-04 04:14 | 53.73231 | -23.70147 | 37319 ft | 482 kts | 80° |
| 2026-05-04 04:14 | 53.74210 | -23.58990 | 37311 ft | 481 kts | 80° |
| 2026-05-04 04:15 | 53.75179 | -23.47832 | 37318 ft | 481 kts | 80° |
| 2026-05-04 04:15 | 53.76139 | -23.36647 | 37313 ft | 481 kts | 80° |
| 2026-05-04 04:16 | 53.77086 | -23.25477 | 37303 ft | 481 kts | 80° |
| 2026-05-04 04:16 | 53.78029 | -23.14250 | 37306 ft | 480 kts | 80° |
| 2026-05-04 04:17 | 53.78957 | -23.03060 | 37301 ft | 480 kts | 81° |
| 2026-05-04 04:17 | 53.79869 | -22.91926 | 37296 ft | 480 kts | 81° |
| 2026-05-04 04:18 | 53.80774 | -22.80755 | 37309 ft | 479 kts | 81° |
| 2026-05-04 04:18 | 53.81669 | -22.69572 | 37317 ft | 479 kts | 81° |
| 2026-05-04 04:19 | 53.82550 | -22.58431 | 37308 ft | 479 kts | 81° |
| 2026-05-04 04:19 | 53.83424 | -22.47238 | 37295 ft | 478 kts | 81° |
| 2026-05-04 04:20 | 53.84284 | -22.36098 | 37294 ft | 478 kts | 81° |
| 2026-05-04 04:20 | 53.85137 | -22.24895 | 37292 ft | 478 kts | 81° |
| 2026-05-04 04:21 | 53.85974 | -22.13771 | 37292 ft | 477 kts | 81° |
| 2026-05-04 04:21 | 53.86802 | -22.02619 | 37292 ft | 477 kts | 81° |
| 2026-05-04 04:22 | 53.87618 | -21.91491 | 37285 ft | 477 kts | 81° |
| 2026-05-04 04:22 | 53.88427 | -21.80316 | 37285 ft | 477 kts | 81° |
| 2026-05-04 04:23 | 53.89224 | -21.69158 | 37283 ft | 476 kts | 81° |
| 2026-05-04 04:23 | 53.90008 | -21.58028 | 37276 ft | 476 kts | 81° |
| 2026-05-04 04:24 | 53.90781 | -21.46904 | 37283 ft | 476 kts | 81° |
| 2026-05-04 04:24 | 53.91544 | -21.35778 | 37280 ft | 475 kts | 81° |
| 2026-05-04 04:25 | 53.92295 | -21.24671 | 37274 ft | 475 kts | 81° |
| 2026-05-04 04:25 | 53.93037 | -21.13542 | 37274 ft | 474 kts | 81° |
| 2026-05-04 04:26 | 53.93769 | -21.02395 | 37269 ft | 474 kts | 81° |
| 2026-05-04 04:26 | 53.94487 | -20.91311 | 37269 ft | 474 kts | 81° |
| 2026-05-04 04:27 | 53.95200 | -20.80146 | 37266 ft | 474 kts | 81° |
| 2026-05-04 04:27 | 53.95897 | -20.69066 | 37265 ft | 473 kts | 81° |
| 2026-05-04 04:28 | 53.96471 | -20.59812 | 37265 ft | 473 kts | 82° |
| 2026-05-04 04:28 | 53.97153 | -20.48654 | 37262 ft | 473 kts | 82° |
| 2026-05-04 04:29 | 53.97825 | -20.37553 | 37261 ft | 473 kts | 82° |
| 2026-05-04 04:29 | 53.98489 | -20.26493 | 37255 ft | 472 kts | 82° |
| 2026-05-04 04:30 | 53.99150 | -20.15346 | 37262 ft | 472 kts | 82° |
| 2026-05-04 04:30 | 53.99790 | -20.04249 | 37249 ft | 472 kts | 82° |
| 2026-05-04 04:31 | 54.00157 | -19.93135 | 37257 ft | 473 kts | 87° |
| 2026-05-04 04:31 | 54.00321 | -19.81895 | 37254 ft | 473 kts | 85° |
| 2026-05-04 04:32 | 54.00558 | -19.70801 | 37257 ft | 473 kts | 85° |
| 2026-05-04 04:32 | 54.00773 | -19.59619 | 37252 ft | 472 kts | 85° |
| 2026-05-04 04:33 | 54.00964 | -19.48467 | 37261 ft | 472 kts | 85° |
| 2026-05-04 04:33 | 54.01141 | -19.37317 | 37238 ft | 472 kts | 85° |
| 2026-05-04 04:34 | 54.01310 | -19.26138 | 37250 ft | 472 kts | 85° |
| 2026-05-04 04:34 | 54.01467 | -19.15002 | 37254 ft | 471 kts | 85° |
| 2026-05-04 04:35 | 54.01614 | -19.03890 | 37253 ft | 471 kts | 86° |
| 2026-05-04 04:35 | 54.01751 | -18.92764 | 37234 ft | 471 kts | 86° |
| 2026-05-04 04:36 | 54.01878 | -18.81581 | 37237 ft | 471 kts | 86° |
| 2026-05-04 04:36 | 54.01994 | -18.70500 | 37233 ft | 471 kts | 86° |
| 2026-05-04 04:37 | 54.02196 | -18.48229 | 37229 ft | 470 kts | 86° |
| 2026-05-04 04:38 | 54.02282 | -18.37096 | 37226 ft | 471 kts | 86° |
| 2026-05-04 04:38 | 54.02357 | -18.25981 | 37221 ft | 471 kts | 86° |
| 2026-05-04 04:39 | 54.02423 | -18.14857 | 37227 ft | 471 kts | 86° |
| 2026-05-04 04:39 | 54.02477 | -18.03680 | 37223 ft | 471 kts | 86° |
| 2026-05-04 04:40 | 54.02521 | -17.92559 | 37224 ft | 471 kts | 86° |
| 2026-05-04 04:40 | 54.02555 | -17.81446 | 37216 ft | 471 kts | 86° |
| 2026-05-04 04:41 | 54.02579 | -17.70292 | 37218 ft | 471 kts | 86° |
| 2026-05-04 04:41 | 54.02593 | -17.59183 | 37213 ft | 471 kts | 86° |
| 2026-05-04 04:42 | 54.02596 | -17.48026 | 37215 ft | 471 kts | 86° |
| 2026-05-04 04:42 | 54.02589 | -17.36889 | 37207 ft | 471 kts | 86° |
| 2026-05-04 04:43 | 54.02572 | -17.25715 | 37208 ft | 472 kts | 87° |
| 2026-05-04 04:43 | 54.02544 | -17.14583 | 37204 ft | 472 kts | 87° |
| 2026-05-04 04:44 | 54.02506 | -17.03420 | 37209 ft | 472 kts | 87° |
| 2026-05-04 04:44 | 54.02458 | -16.92280 | 37203 ft | 472 kts | 87° |
| 2026-05-04 04:45 | 54.02399 | -16.81055 | 37203 ft | 472 kts | 87° |
| 2026-05-04 04:47 | 54.02111 | -16.41985 | 37200 ft | 473 kts | 87° |
| 2026-05-04 04:47 | 54.02006 | -16.30807 | 37202 ft | 473 kts | 87° |
| 2026-05-04 04:48 | 54.01890 | -16.19618 | 37193 ft | 473 kts | 87° |
| 2026-05-04 04:49 | 54.01555 | -15.91630 | 37197 ft | 473 kts | 87° |
| 2026-05-04 04:49 | 54.01403 | -15.80456 | 37200 ft | 473 kts | 87° |
| 2026-05-04 04:50 | 54.01240 | -15.69248 | 37186 ft | 473 kts | 88° |
| 2026-05-04 04:50 | 54.01067 | -15.58080 | 37197 ft | 473 kts | 88° |
| 2026-05-04 04:51 | 54.00884 | -15.46909 | 37193 ft | 472 kts | 88° |
| 2026-05-04 04:51 | 54.00691 | -15.35787 | 37184 ft | 472 kts | 88° |
| 2026-05-04 04:52 | 54.00488 | -15.24658 | 37188 ft | 472 kts | 88° |
| 2026-05-04 04:52 | 54.00277 | -15.13496 | 37187 ft | 472 kts | 88° |
| 2026-05-04 04:53 | 54.00061 | -15.02366 | 37189 ft | 471 kts | 88° |
| 2026-05-04 04:53 | 53.99959 | -14.91203 | 37181 ft | 469 kts | 86° |
| 2026-05-04 04:54 | 54.00042 | -14.80147 | 37186 ft | 469 kts | 86° |
| 2026-05-04 04:54 | 54.00089 | -14.69072 | 37174 ft | 469 kts | 86° |
| 2026-05-04 04:55 | 54.00104 | -14.57977 | 37177 ft | 469 kts | 86° |
| 2026-05-04 04:55 | 54.00106 | -14.46945 | 37171 ft | 469 kts | 86° |
| 2026-05-04 04:56 | 54.00097 | -14.35815 | 37176 ft | 469 kts | 86° |
| 2026-05-04 04:56 | 54.00079 | -14.24750 | 37162 ft | 469 kts | 87° |
| 2026-05-04 04:57 | 54.00051 | -14.13708 | 37177 ft | 469 kts | 87° |
| 2026-05-04 04:57 | 54.00013 | -14.02630 | 37173 ft | 469 kts | 87° |
| 2026-05-04 04:58 | 53.99901 | -13.91526 | 37160 ft | 470 kts | 89° |
| 2026-05-04 04:58 | 53.99682 | -13.80421 | 37160 ft | 470 kts | 89° |
| 2026-05-04 04:59 | 53.99474 | -13.69311 | 37163 ft | 471 kts | 88° |
| 2026-05-04 04:59 | 53.99265 | -13.58211 | 37163 ft | 471 kts | 89° |
| 2026-05-04 05:00 | 53.99045 | -13.47090 | 37159 ft | 472 kts | 89° |
| 2026-05-04 05:01 | 53.98692 | -13.30263 | 37170 ft | 473 kts | 89° |
| 2026-05-04 05:01 | 53.98445 | -13.19108 | 37161 ft | 474 kts | 89° |
| 2026-05-04 05:02 | 53.98187 | -13.07956 | 37159 ft | 474 kts | 89° |
| 2026-05-04 05:02 | 53.97920 | -12.96822 | 37162 ft | 474 kts | 89° |